createdAt,value
2022-12-22T00:02:33.506Z,4.97
2022-12-22T00:05:18.760Z,6.03
2022-12-22T00:08:03.754Z,5.90
2022-12-22T00:10:48.858Z,5.73
2022-12-22T00:13:34.364Z,5.20
2022-12-22T00:16:19.484Z,5.37
2022-12-22T00:19:04.710Z,4.57
2022-12-22T00:21:49.827Z,5.37
2022-12-22T00:24:34.923Z,5.07
2022-12-22T00:27:19.871Z,4.73
2022-12-22T00:30:05.062Z,4.67
2022-12-22T00:32:54.731Z,5.00
2022-12-22T00:35:41.288Z,5.00
2022-12-22T00:38:32.001Z,4.73
2022-12-22T00:41:17.158Z,5.47
2022-12-22T00:44:02.104Z,4.90
2022-12-22T00:46:47.123Z,4.70
2022-12-22T00:49:32.701Z,4.80
2022-12-22T00:52:17.733Z,5.07
2022-12-22T00:55:02.782Z,4.30
2022-12-22T00:57:47.776Z,5.93
2022-12-22T01:00:37.017Z,5.13
2022-12-22T01:03:22.713Z,4.47
2022-12-22T01:06:07.741Z,4.43
2022-12-22T01:08:53.804Z,4.00
2022-12-22T01:11:39.293Z,3.50
2022-12-22T01:14:28.833Z,5.07
2022-12-22T01:17:13.996Z,4.57
2022-12-22T01:19:58.904Z,4.67
2022-12-22T01:22:45.459Z,4.70
2022-12-22T01:25:35.776Z,5.13
2022-12-22T01:28:21.297Z,5.13
2022-12-22T01:31:06.946Z,6.67
2022-12-22T01:33:52.106Z,6.10
2022-12-22T01:36:37.054Z,6.17
2022-12-22T01:39:22.105Z,6.90
2022-12-22T01:42:08.059Z,6.27
2022-12-22T01:44:53.047Z,6.13
2022-12-22T01:47:47.300Z,6.77
2022-12-22T01:50:52.767Z,7.10
2022-12-22T01:53:40.070Z,11.10
2022-12-22T01:56:25.000Z,7.60
2022-12-22T01:59:13.122Z,8.90
2022-12-22T02:01:59.480Z,6.97
2022-12-22T02:04:47.548Z,8.43
2022-12-22T02:07:42.172Z,8.63
2022-12-22T02:10:38.600Z,8.37
2022-12-22T02:13:36.586Z,11.40
2022-12-22T02:16:42.280Z,8.20
2022-12-22T02:19:54.966Z,8.87
2022-12-22T02:23:00.704Z,10.93
2022-12-22T02:25:51.753Z,7.87
2022-12-22T02:28:36.772Z,7.83
2022-12-22T02:31:21.846Z,9.17
2022-12-22T02:34:06.991Z,9.67
2022-12-22T02:37:15.649Z,8.77
2022-12-22T02:40:16.309Z,8.40
2022-12-22T02:43:16.625Z,9.90
2022-12-22T02:46:19.061Z,8.50
2022-12-22T02:49:09.210Z,7.77
2022-12-22T02:52:01.484Z,8.07
2022-12-22T02:54:47.435Z,9.53
2022-12-22T02:57:35.448Z,9.07
2022-12-22T03:00:21.020Z,9.97
2022-12-22T03:03:06.363Z,7.80
2022-12-22T03:05:51.539Z,8.68
2022-12-22T03:08:36.652Z,6.23
2022-12-22T03:11:21.819Z,7.33
2022-12-22T03:14:07.023Z,8.93
2022-12-22T03:16:51.991Z,7.63
2022-12-22T03:19:36.997Z,8.10
2022-12-22T03:22:21.977Z,9.77
2022-12-22T03:25:07.042Z,5.87
2022-12-22T03:27:33.470Z,5.97
2022-12-22T03:29:59.888Z,7.57
2022-12-22T03:32:26.315Z,5.60
2022-12-22T03:34:52.778Z,6.63
2022-12-22T03:37:19.183Z,7.63
2022-12-22T03:39:45.563Z,6.37
2022-12-22T03:42:30.751Z,6.17
2022-12-22T03:45:15.730Z,7.27
2022-12-22T03:47:42.191Z,6.07
2022-12-22T03:50:08.707Z,7.60
2022-12-22T03:52:35.173Z,5.63
2022-12-22T03:55:01.577Z,6.90
2022-12-22T03:57:27.987Z,6.97
2022-12-22T03:59:54.423Z,5.20
2022-12-22T04:02:20.876Z,5.60
2022-12-22T04:04:47.365Z,5.90
2022-12-22T04:07:13.785Z,6.10
2022-12-22T04:10:00.181Z,5.50
2022-12-22T04:12:45.216Z,5.10
2022-12-22T04:15:11.611Z,7.33
2022-12-22T04:17:38.029Z,5.53
2022-12-22T04:20:04.739Z,5.30
2022-12-22T04:22:31.181Z,5.73
2022-12-22T04:24:57.593Z,4.80
2022-12-22T04:27:24.008Z,4.80
2022-12-22T04:29:50.415Z,5.43
2022-12-22T04:32:16.868Z,5.07
2022-12-22T04:34:43.301Z,5.68
2022-12-22T04:37:16.720Z,5.13
2022-12-22T04:39:43.777Z,5.17
2022-12-22T04:42:10.183Z,5.13
2022-12-22T04:44:36.636Z,5.17
2022-12-22T04:47:03.044Z,6.00
2022-12-22T04:49:29.446Z,4.27
2022-12-22T04:51:55.864Z,4.47
2022-12-22T04:54:22.291Z,4.50
2022-12-22T04:56:48.764Z,4.85
2022-12-22T04:59:15.202Z,5.03
2022-12-22T05:01:41.771Z,4.40
2022-12-22T05:04:08.307Z,4.13
2022-12-22T05:06:34.859Z,5.63
2022-12-22T05:09:01.260Z,4.53
2022-12-22T05:11:27.819Z,4.53
2022-12-22T05:13:54.217Z,7.70
2022-12-22T05:16:20.673Z,5.90
2022-12-22T05:18:47.184Z,5.00
2022-12-22T05:21:15.995Z,4.57
2022-12-22T05:23:42.537Z,5.20
2022-12-22T05:26:09.491Z,4.53
2022-12-22T05:28:36.319Z,5.63
2022-12-22T05:31:08.044Z,5.07
2022-12-22T05:33:34.453Z,4.77
2022-12-22T05:36:01.774Z,5.00
2022-12-22T05:38:28.398Z,6.20
2022-12-22T05:41:01.520Z,5.50
2022-12-22T05:43:30.204Z,4.85
2022-12-22T05:45:58.562Z,4.73
2022-12-22T05:48:30.793Z,5.15
2022-12-22T05:51:00.235Z,5.78
2022-12-22T05:53:26.638Z,5.22
2022-12-22T05:55:53.125Z,6.55
2022-12-22T05:58:19.574Z,5.05
2022-12-22T06:00:46.174Z,5.22
2022-12-22T06:03:12.670Z,5.17
2022-12-22T06:05:39.567Z,5.37
2022-12-22T06:08:05.987Z,5.00
2022-12-22T06:10:32.391Z,5.27
2022-12-22T06:12:58.805Z,5.53
2022-12-22T06:15:25.255Z,5.03
2022-12-22T06:17:51.653Z,5.35
2022-12-22T06:20:18.072Z,6.90
2022-12-22T06:22:44.486Z,6.72
2022-12-22T06:25:17.714Z,5.63
2022-12-22T06:27:45.052Z,6.33
2022-12-22T06:30:11.747Z,5.60
2022-12-22T06:32:39.244Z,10.37
2022-12-22T06:35:07.594Z,5.85
2022-12-22T06:37:34.106Z,6.68
2022-12-22T06:40:00.517Z,6.22
2022-12-22T06:42:45.597Z,5.47
2022-12-22T06:45:12.011Z,6.30
2022-12-22T06:47:38.442Z,7.05
2022-12-22T06:50:05.613Z,6.22
2022-12-22T06:52:32.039Z,5.93
2022-12-22T06:54:58.440Z,6.00
2022-12-22T06:57:24.848Z,7.22
2022-12-22T06:59:57.212Z,5.87
2022-12-22T07:02:24.292Z,6.73
2022-12-22T07:04:50.965Z,6.40
2022-12-22T07:07:17.380Z,7.43
2022-12-22T07:09:43.777Z,5.85
2022-12-22T07:12:10.251Z,6.90
2022-12-22T07:14:36.732Z,7.10
2022-12-22T07:17:03.197Z,6.25
2022-12-22T07:19:29.629Z,5.97
2022-12-22T07:21:56.073Z,6.63
2022-12-22T07:24:25.739Z,7.43
2022-12-22T07:26:52.744Z,6.35
2022-12-22T07:29:19.210Z,7.60
2022-12-22T07:31:45.757Z,7.10
2022-12-22T07:34:12.593Z,6.97
2022-12-22T07:36:39.015Z,6.63
2022-12-22T07:39:05.421Z,7.20
2022-12-22T07:41:50.420Z,8.38
2022-12-22T07:44:16.809Z,6.80
2022-12-22T07:46:43.256Z,7.00
2022-12-22T07:49:29.799Z,9.77
2022-12-22T07:51:57.683Z,6.97
2022-12-22T07:54:24.291Z,8.00
2022-12-22T07:56:50.834Z,6.70
2022-12-22T07:59:18.344Z,7.80
2022-12-22T08:01:45.793Z,6.43
2022-12-22T08:04:13.580Z,7.22
2022-12-22T08:06:40.524Z,7.13
2022-12-22T08:09:08.005Z,9.70
2022-12-22T08:11:34.686Z,9.73
2022-12-22T08:14:02.066Z,7.03
2022-12-22T08:16:29.221Z,7.70
2022-12-22T08:18:56.146Z,7.50
2022-12-22T08:21:23.051Z,7.80
2022-12-22T08:23:50.514Z,7.07
2022-12-22T08:26:22.330Z,7.18
2022-12-22T08:29:12.669Z,8.00
2022-12-22T08:31:40.018Z,6.65
2022-12-22T08:34:08.301Z,6.63
2022-12-22T08:36:40.047Z,8.02
2022-12-22T08:39:07.526Z,8.05
2022-12-22T08:41:52.773Z,8.93
2022-12-22T08:44:29.086Z,8.77
2022-12-22T08:46:58.275Z,6.95
2022-12-22T08:49:25.385Z,6.22
2022-12-22T08:51:52.084Z,6.68
2022-12-22T08:54:18.714Z,6.57
2022-12-22T08:56:45.646Z,6.53
2022-12-22T08:59:12.700Z,6.82
2022-12-22T09:01:42.618Z,6.93
2022-12-22T09:04:09.577Z,7.85
2022-12-22T09:06:40.939Z,9.52
2022-12-22T09:09:09.963Z,7.70
2022-12-22T09:11:36.525Z,6.90
2022-12-22T09:14:03.999Z,8.48
2022-12-22T09:16:32.234Z,6.15
2022-12-22T09:18:59.323Z,6.22
2022-12-22T09:21:25.818Z,5.10
2022-12-22T09:23:52.622Z,5.95
2022-12-22T09:26:21.236Z,6.70
2022-12-22T09:28:50.414Z,5.32
2022-12-22T09:31:18.456Z,6.25
2022-12-22T09:33:44.945Z,6.22
2022-12-22T09:36:14.377Z,6.05
2022-12-22T09:38:41.441Z,5.75
2022-12-22T09:41:16.537Z,5.25
2022-12-22T09:43:43.153Z,5.97
2022-12-22T09:46:30.445Z,4.68
2022-12-22T09:48:56.986Z,6.45
2022-12-22T09:51:27.202Z,7.03
2022-12-22T09:53:57.904Z,5.50
2022-12-22T09:56:26.458Z,5.32
2022-12-22T09:58:52.877Z,5.78
2022-12-22T10:01:41.229Z,5.15
2022-12-22T10:04:20.801Z,5.30
2022-12-22T10:07:20.188Z,4.82
2022-12-22T10:09:50.798Z,6.78
2022-12-22T10:12:22.199Z,7.05
2022-12-22T10:14:50.382Z,6.93
2022-12-22T10:17:29.119Z,5.00
2022-12-22T10:20:19.195Z,6.07
2022-12-22T10:22:49.242Z,8.45
2022-12-22T10:28:28.728Z,6.70
2022-12-22T10:31:13.881Z,6.78
2022-12-22T10:33:46.435Z,6.25
2022-12-22T10:36:15.407Z,3.95
2022-12-22T10:39:01.977Z,3.33
2022-12-22T10:41:44.929Z,3.40
2022-12-22T10:44:20.608Z,3.47
2022-12-22T10:46:51.664Z,3.33
2022-12-22T10:52:42.803Z,3.13
2022-12-22T10:55:19.212Z,3.95
2022-12-22T10:57:45.704Z,5.45
2022-12-22T11:00:24.533Z,3.22
2022-12-22T11:02:53.007Z,4.28
2022-12-22T11:05:19.532Z,3.90
2022-12-22T11:07:47.489Z,3.63
2022-12-22T11:10:22.999Z,3.20
2022-12-22T11:13:07.718Z,3.70
2022-12-22T11:15:38.904Z,3.42
2022-12-22T11:18:40.598Z,3.38
2022-12-22T11:21:23.758Z,2.80
2022-12-22T11:24:03.327Z,3.10
2022-12-22T11:26:35.857Z,2.70
2022-12-22T11:29:22.420Z,2.22
2022-12-22T11:32:28.925Z,2.60
2022-12-22T11:35:05.853Z,3.47
2022-12-22T11:37:48.486Z,3.35
2022-12-22T11:40:38.149Z,2.78
2022-12-22T11:43:42.285Z,2.70
2022-12-22T11:46:19.194Z,2.72
2022-12-22T11:48:57.608Z,2.58
2022-12-22T11:51:48.943Z,2.58
2022-12-22T11:54:29.977Z,3.13
2022-12-22T11:57:04.828Z,3.15
2022-12-22T12:00:04.106Z,2.70
2022-12-22T12:02:52.121Z,2.92
2022-12-22T12:05:39.555Z,2.85
2022-12-22T12:08:27.127Z,2.35
2022-12-22T12:11:01.347Z,3.88
2022-12-22T12:13:43.180Z,5.40
2022-12-22T12:16:31.357Z,4.60
2022-12-22T12:19:28.567Z,3.70
2022-12-22T12:21:58.185Z,4.53
2022-12-22T12:24:38.139Z,3.90
2022-12-22T12:27:33.915Z,6.75
2022-12-22T12:30:37.425Z,6.97
2022-12-22T12:32:56.645Z,5.78
2022-12-22T12:35:51.946Z,6.00
2022-12-22T12:39:08.904Z,5.28
2022-12-22T12:41:56.575Z,5.20
2022-12-22T12:44:25.853Z,5.28
2022-12-22T12:46:55.282Z,6.57
2022-12-22T12:49:33.955Z,3.92
2022-12-22T12:52:10.543Z,3.30
2022-12-22T12:54:39.623Z,3.00
2022-12-22T12:57:27.427Z,2.47
2022-12-22T12:59:59.091Z,3.05
2022-12-22T13:02:29.783Z,3.80
2022-12-22T13:05:13.089Z,2.63
2022-12-22T13:08:07.714Z,2.50
2022-12-22T13:10:38.485Z,2.83
2022-12-22T13:13:05.639Z,2.78
2022-12-22T13:15:34.650Z,3.08
2022-12-22T13:18:03.480Z,2.63
2022-12-22T13:20:33.932Z,2.42
2022-12-22T13:23:02.536Z,3.30
2022-12-22T13:25:50.810Z,3.40
2022-12-22T13:28:18.317Z,5.10
2022-12-22T13:30:51.849Z,3.55
2022-12-22T13:33:20.627Z,4.35
2022-12-22T13:35:52.156Z,4.35
2022-12-22T13:38:37.645Z,4.63
2022-12-22T13:41:13.451Z,4.95
2022-12-22T13:43:42.787Z,5.05
2022-12-22T13:46:09.433Z,5.40
2022-12-22T13:48:44.237Z,5.78
2022-12-22T13:51:21.887Z,5.32
2022-12-22T13:54:08.542Z,6.15
2022-12-22T13:56:38.081Z,5.30
2022-12-22T13:59:21.652Z,4.90
2022-12-22T14:01:52.300Z,5.47
2022-12-22T14:04:18.845Z,4.60
2022-12-22T14:06:45.362Z,5.20
2022-12-22T14:09:25.663Z,4.50
2022-12-22T14:12:01.438Z,4.70
2022-12-22T14:14:41.323Z,3.65
2022-12-22T14:17:21.849Z,4.43
2022-12-22T14:19:51.182Z,4.07
2022-12-22T14:22:21.285Z,5.63
2022-12-22T14:24:48.853Z,6.53
2022-12-22T14:27:24.380Z,5.47
2022-12-22T14:29:51.086Z,5.50
2022-12-22T14:32:43.805Z,6.18
2022-12-22T14:35:21.191Z,5.65
2022-12-22T14:37:48.895Z,5.82
2022-12-22T14:40:38.101Z,7.03
2022-12-22T14:43:07.989Z,6.93
2022-12-22T14:45:34.489Z,7.18
2022-12-22T14:48:16.123Z,6.63
2022-12-22T14:50:57.211Z,6.10
2022-12-22T14:53:30.302Z,5.97
2022-12-22T14:55:56.911Z,5.72
2022-12-22T14:58:34.596Z,6.85
2022-12-22T15:01:25.293Z,7.28
2022-12-22T15:04:04.340Z,6.93
2022-12-22T15:06:41.938Z,7.75
2022-12-22T15:09:15.064Z,7.80
2022-12-22T15:11:47.075Z,6.95
2022-12-22T15:14:19.501Z,7.05
2022-12-22T15:16:46.347Z,9.70
2022-12-22T15:19:14.553Z,9.15
2022-12-22T15:21:41.106Z,8.90
2022-12-22T15:24:12.506Z,8.52
2022-12-22T15:26:39.152Z,10.07
2022-12-22T15:29:06.018Z,8.70
2022-12-22T15:31:32.886Z,10.20
2022-12-22T15:34:01.562Z,9.00
2022-12-22T15:36:28.306Z,10.02
2022-12-22T15:38:54.973Z,12.27
2022-12-22T15:41:21.552Z,11.45
2022-12-22T15:44:03.584Z,8.98
2022-12-22T15:46:30.207Z,10.00
2022-12-22T15:48:57.089Z,10.02
2022-12-22T15:51:29.293Z,11.70
2022-12-22T15:53:56.248Z,11.80
2022-12-22T15:56:27.668Z,11.18
2022-12-22T15:58:55.265Z,10.90
2022-12-22T16:01:21.795Z,12.38
2022-12-22T16:03:48.501Z,15.55
2022-12-22T16:06:16.645Z,13.60
2022-12-22T16:08:47.305Z,17.20
2022-12-22T16:11:14.171Z,15.15
2022-12-22T16:13:40.747Z,12.00
2022-12-22T16:16:08.648Z,14.88
2022-12-22T16:18:35.600Z,13.82
2022-12-22T16:21:08.124Z,13.48
2022-12-22T16:23:36.016Z,15.70
2022-12-22T16:26:04.236Z,15.70
2022-12-22T16:28:31.122Z,14.02
2022-12-22T16:30:57.855Z,16.00
2022-12-22T16:33:24.404Z,14.52
2022-12-22T16:35:50.986Z,15.48
2022-12-22T16:38:19.349Z,14.32
2022-12-22T16:40:53.462Z,14.90
2022-12-22T16:46:13.552Z,14.20
2022-12-22T16:48:42.481Z,15.18
2022-12-22T16:51:18.463Z,15.15
2022-12-22T16:53:45.084Z,15.00
2022-12-22T16:56:21.101Z,15.10
2022-12-22T16:58:48.223Z,18.48
2022-12-22T17:01:36.414Z,16.38
2022-12-22T17:04:07.110Z,19.80
2022-12-22T17:06:34.761Z,16.20
2022-12-22T17:09:03.613Z,19.08
2022-12-22T17:11:32.667Z,21.17
2022-12-22T17:14:06.536Z,21.85
2022-12-22T17:16:33.112Z,22.52
2022-12-22T17:18:59.719Z,19.57
2022-12-22T17:21:28.566Z,19.88
2022-12-22T17:23:55.246Z,15.07
2022-12-22T17:26:24.808Z,19.23
2022-12-22T17:28:52.253Z,16.77
2022-12-22T17:31:24.265Z,19.97
2022-12-22T17:33:50.927Z,16.60
2022-12-22T17:36:27.269Z,18.20
2022-12-22T17:38:54.135Z,16.70
2022-12-22T17:41:20.854Z,17.80
2022-12-22T17:43:47.484Z,31.67
2022-12-22T17:46:16.133Z,33.40
2022-12-22T17:48:43.198Z,23.00
2022-12-22T17:51:24.532Z,17.37
2022-12-22T17:53:52.193Z,18.17
2022-12-22T17:56:20.769Z,21.23
2022-12-22T17:58:47.548Z,20.17
2022-12-22T18:01:29.696Z,19.97
2022-12-22T18:03:56.629Z,18.93
2022-12-22T18:06:26.891Z,18.93
2022-12-22T18:08:54.661Z,18.63
2022-12-22T18:11:22.000Z,19.07
2022-12-22T18:13:48.801Z,17.20
2022-12-22T18:16:17.399Z,14.67
2022-12-22T18:18:44.773Z,15.70
2022-12-22T18:21:19.996Z,12.20
2022-12-22T18:23:51.065Z,12.80
2022-12-22T18:26:24.691Z,12.20
2022-12-22T18:28:51.465Z,11.67
2022-12-22T18:31:18.627Z,14.00
2022-12-22T18:33:46.903Z,12.60
2022-12-22T18:36:17.384Z,14.27
2022-12-22T18:38:45.674Z,14.13
2022-12-22T18:41:16.342Z,13.93
2022-12-22T18:43:42.873Z,15.73
2022-12-22T18:46:11.114Z,12.83
2022-12-22T18:48:37.672Z,13.47
2022-12-22T18:51:06.580Z,14.67
2022-12-22T18:53:33.453Z,14.50
2022-12-22T18:56:00.275Z,11.63
2022-12-22T18:58:27.251Z,10.57
2022-12-22T19:00:55.090Z,11.47
2022-12-22T19:03:24.234Z,15.83
2022-12-22T19:05:51.293Z,13.60
2022-12-22T19:08:19.683Z,13.23
2022-12-22T19:10:51.602Z,12.50
2022-12-22T19:13:33.474Z,13.43
2022-12-22T19:16:00.406Z,15.40
2022-12-22T19:18:27.871Z,15.73
2022-12-22T19:20:55.712Z,17.43
2022-12-22T19:23:23.921Z,14.63
2022-12-22T19:26:08.145Z,15.50
2022-12-22T19:28:38.171Z,16.27
2022-12-22T19:31:10.345Z,16.80
2022-12-22T19:33:43.797Z,15.77
2022-12-22T19:36:19.829Z,14.00
2022-12-22T19:38:50.443Z,15.90
2022-12-22T19:41:50.540Z,12.60
2022-12-22T19:44:22.580Z,13.23
2022-12-22T19:46:49.875Z,11.43
2022-12-22T19:49:25.103Z,10.73
2022-12-22T19:51:51.716Z,11.47
2022-12-22T19:54:19.610Z,12.50
2022-12-22T19:56:52.383Z,11.37
2022-12-22T19:59:29.583Z,14.23
2022-12-22T20:01:58.123Z,16.60
2022-12-22T20:04:25.096Z,16.23
2022-12-22T20:06:51.711Z,16.37
2022-12-22T20:09:18.314Z,11.27
2022-12-22T20:11:44.998Z,10.10
2022-12-22T20:14:18.895Z,9.67
2022-12-22T20:16:45.536Z,9.53
2022-12-22T20:19:15.625Z,9.97
2022-12-22T20:21:42.210Z,10.43
2022-12-22T20:24:13.351Z,10.60
2022-12-22T20:26:39.912Z,10.17
2022-12-22T20:29:06.479Z,10.87
2022-12-22T20:31:33.162Z,13.97
2022-12-22T20:34:01.139Z,10.33
2022-12-22T20:36:31.930Z,12.80
2022-12-22T20:38:59.682Z,8.80
2022-12-22T20:41:26.702Z,7.43
2022-12-22T20:43:53.856Z,8.50
2022-12-22T20:46:23.823Z,9.33
2022-12-22T20:48:55.939Z,8.93
2022-12-22T20:51:24.189Z,9.80
2022-12-22T20:53:51.988Z,8.33
2022-12-22T20:56:28.625Z,9.43
2022-12-22T20:58:55.737Z,10.23
2022-12-22T21:01:23.644Z,9.90
2022-12-22T21:03:50.447Z,10.10
2022-12-22T21:06:20.068Z,9.03
2022-12-22T21:08:46.723Z,8.43
2022-12-22T21:11:13.233Z,8.57
2022-12-22T21:13:39.811Z,8.03
2022-12-22T21:16:11.599Z,8.20
2022-12-22T21:18:38.128Z,7.70
2022-12-22T21:21:04.645Z,9.83
2022-12-22T21:23:32.313Z,9.73
2022-12-22T21:25:58.860Z,9.40
2022-12-22T21:28:36.129Z,10.70
2022-12-22T21:31:03.479Z,10.37
2022-12-22T21:33:30.806Z,10.93
2022-12-22T21:35:58.740Z,11.00
2022-12-22T21:38:28.008Z,7.97
2022-12-22T21:40:54.774Z,10.47
2022-12-22T21:43:21.369Z,9.73
2022-12-22T21:45:49.229Z,7.30
2022-12-22T21:48:20.804Z,8.70
2022-12-22T21:50:50.224Z,7.30
2022-12-22T21:53:22.344Z,7.73
2022-12-22T21:55:49.583Z,7.00
2022-12-22T21:58:16.142Z,7.13
2022-12-22T22:00:46.248Z,7.43
2022-12-22T22:03:14.229Z,8.80
2022-12-22T22:05:41.076Z,10.60
2022-12-22T22:08:09.751Z,8.43
2022-12-22T22:10:43.554Z,7.47
2022-12-22T22:13:15.313Z,8.73
2022-12-22T22:15:42.636Z,8.77
2022-12-22T22:18:15.047Z,9.47
2022-12-22T22:20:41.808Z,9.77
2022-12-22T22:23:11.718Z,7.67
2022-12-22T22:25:38.318Z,8.17
2022-12-22T22:28:04.880Z,8.97
2022-12-22T22:30:31.435Z,9.43
2022-12-22T22:32:58.023Z,8.33
2022-12-22T22:35:27.765Z,8.80
2022-12-22T22:37:55.208Z,9.67
2022-12-22T22:40:22.651Z,7.93
2022-12-22T22:42:49.222Z,10.30
2022-12-22T22:45:19.965Z,9.17
2022-12-22T22:47:46.505Z,10.03
2022-12-22T22:50:13.334Z,10.27
2022-12-22T22:52:42.043Z,7.53
2022-12-22T22:55:09.004Z,7.53
2022-12-22T22:57:35.637Z,6.73
2022-12-22T23:00:02.455Z,6.97
2022-12-22T23:02:29.170Z,7.87
2022-12-22T23:04:55.810Z,7.67
2022-12-22T23:07:22.454Z,6.93
2022-12-22T23:09:49.064Z,6.47
2022-12-22T23:12:15.890Z,7.83
2022-12-22T23:14:42.437Z,7.77
2022-12-22T23:17:08.973Z,6.63
2022-12-22T23:19:35.480Z,8.37
2022-12-22T23:22:02.026Z,8.80
2022-12-22T23:24:28.558Z,7.70
2022-12-22T23:26:55.108Z,8.70
2022-12-22T23:29:21.699Z,8.47
2022-12-22T23:31:48.325Z,7.33
2022-12-22T23:34:15.354Z,7.63
2022-12-22T23:36:41.970Z,8.13
2022-12-22T23:39:08.386Z,8.23
2022-12-22T23:41:34.927Z,8.83
2022-12-22T23:44:01.371Z,8.77
2022-12-22T23:46:27.830Z,10.20
2022-12-22T23:48:56.126Z,10.20
2022-12-22T23:51:24.623Z,8.67
2022-12-22T23:53:51.022Z,9.90
2022-12-22T23:56:17.464Z,10.10
2022-12-22T23:58:44.776Z,13.13
